PAFA

Fairbanks International

Airport
ICAO code
PAFA
Summary
ICAO Region
NAM
ICAO Territory
Location

Fairbanks,

Coordinates
64° 49' 12" N , 147° 51' 52" W
KCC
Airport BS
Bird Strike
Airport CFIT
Altimeter Temperature Error Correction
Metar
PAFA 201853Z 00000KT 10SM FEW080 18/08 A3022 RMK AO2 SLP237 T01830078

Description

International airport serving Fairbanks, Alaska.

Climatology

Subarctic climate (Köppen climate classification Dfc) - long, usually very cold winters, and short, cool to mild summers.

Runways

Designator Length Width Surface Rops
2/20 884 23 GRVL Yes/Yes
02W/20W 1646 30 WATER No/No
02R/20L 1982 30 ASPH-G Yes/Yes
02L/20R 3597 46 ASPH-G Yes/Yes

Airport map

Aerial View

SKYbrary Partners:

Safety knowledge contributed by: